Coyanosa, Texas
Current Conditions -  °F | °C
As of 10:53 PM on Friday 24 Oct 2014 (Local Time) from KFST Reporting Station
Clear Clear  
Wind Chill: 69°   Ceiling: Unl
Heat Index: 69°   Visibility: 10mi
Dew Point: 57°   Wind: 13mph
Humidity: 65%   Direction: 160°SSE
Pressure: 30.18"   Gusts: NA
Location:  31.24°N, 103.06°W
Report Text: KFST 250353Z AUTO 16011KT 10SM CLR 21/14 A3018 RMK AO2 SLP179 T02060139
Loading
Personal Weather Stations






























Interactive Weather Map
Tropical Storm Tracking
New forecast layout! Learn more

10-Day Weather Forecast

Advertisements
Track Severe Weather on mobile